createdAt,value
2022-08-03T00:00:30.032Z,75.69
2022-08-03T00:03:04.082Z,76.17
2022-08-03T00:05:33.046Z,75.68
2022-08-03T00:08:01.170Z,75.80
2022-08-03T00:10:28.871Z,76.41
2022-08-03T00:12:56.262Z,76.66
2022-08-03T00:15:23.813Z,76.62
2022-08-03T00:17:54.096Z,76.18
2022-08-03T00:20:22.167Z,76.22
2022-08-03T00:22:50.462Z,76.90
2022-08-03T00:25:19.093Z,77.34
2022-08-03T00:27:47.751Z,77.07
2022-08-03T00:30:16.841Z,77.06
2022-08-03T00:32:45.526Z,76.35
2022-08-03T00:35:32.580Z,76.78
2022-08-03T00:38:00.674Z,75.46
2022-08-03T00:40:28.181Z,75.67
2022-08-03T00:43:05.618Z,75.75
2022-08-03T00:45:36.995Z,76.12
2022-08-03T00:48:07.145Z,76.39
2022-08-03T00:50:54.695Z,76.46
2022-08-03T00:53:22.156Z,76.35
2022-08-03T00:55:49.530Z,77.12
2022-08-03T00:58:16.953Z,77.21
2022-08-03T01:00:44.351Z,76.89
2022-08-03T01:03:11.746Z,77.16
2022-08-03T01:05:57.850Z,76.71
2022-08-03T01:08:31.425Z,76.95
2022-08-03T01:11:34.684Z,77.15
2022-08-03T01:14:26.389Z,77.24
2022-08-03T01:17:11.667Z,76.43
2022-08-03T01:19:48.664Z,75.81
2022-08-03T01:22:45.183Z,75.21
2022-08-03T01:25:56.092Z,74.88
2022-08-03T01:28:54.415Z,74.89
2022-08-03T01:31:28.626Z,74.62
2022-08-03T01:34:02.304Z,74.37
2022-08-03T01:36:37.342Z,73.89
2022-08-03T01:39:11.040Z,73.40
2022-08-03T01:42:00.542Z,73.19
2022-08-03T01:44:33.506Z,72.93
2022-08-03T01:47:02.807Z,72.71
2022-08-03T01:49:33.398Z,73.01
2022-08-03T01:52:05.385Z,73.37
2022-08-03T01:54:42.955Z,73.30
2022-08-03T01:57:10.565Z,73.03
2022-08-03T01:59:40.066Z,72.68
2022-08-03T02:02:15.941Z,72.36
2022-08-03T02:05:01.185Z,72.77
2022-08-03T02:07:31.766Z,72.93
2022-08-03T02:10:01.911Z,73.12
2022-08-03T02:12:32.107Z,73.03
2022-08-03T02:15:01.152Z,72.74
2022-08-03T02:17:38.606Z,72.53
2022-08-03T02:20:13.288Z,72.63
2022-08-03T02:22:42.830Z,72.73
2022-08-03T02:25:13.061Z,72.82
2022-08-03T02:28:01.395Z,72.81
2022-08-03T02:30:38.720Z,72.62
2022-08-03T02:33:12.465Z,72.22
2022-08-03T02:35:43.082Z,72.04
2022-08-03T02:38:12.451Z,72.06
2022-08-03T02:40:42.362Z,72.34
2022-08-03T02:43:19.901Z,72.59
2022-08-03T02:45:51.056Z,72.72
2022-08-03T02:48:23.231Z,72.84
2022-08-03T02:50:57.963Z,72.80
2022-08-03T02:53:28.614Z,72.36
2022-08-03T02:55:57.852Z,72.29
2022-08-03T02:58:26.032Z,72.14
2022-08-03T03:00:54.877Z,72.50
2022-08-03T03:03:24.043Z,72.91
2022-08-03T03:05:57.490Z,73.03
2022-08-03T03:08:28.917Z,73.15
2022-08-03T03:11:00.033Z,72.86
2022-08-03T03:13:30.867Z,72.67
2022-08-03T03:16:02.263Z,72.56
2022-08-03T03:18:32.101Z,72.34
2022-08-03T03:21:02.430Z,72.31
2022-08-03T03:23:31.787Z,72.64
2022-08-03T03:26:02.450Z,72.68
2022-08-03T03:28:31.391Z,72.47
2022-08-03T03:31:00.412Z,72.12
2022-08-03T03:33:28.596Z,71.81
2022-08-03T03:35:58.361Z,71.72
2022-08-03T03:38:26.684Z,71.33
2022-08-03T03:40:55.224Z,71.50
2022-08-03T03:43:23.954Z,71.49
2022-08-03T03:45:53.308Z,71.62
2022-08-03T03:48:21.169Z,71.47
2022-08-03T03:50:50.366Z,71.14
2022-08-03T03:53:18.398Z,70.83
2022-08-03T03:55:59.562Z,70.45
2022-08-03T03:58:33.319Z,70.19
2022-08-03T04:01:01.580Z,70.16
2022-08-03T04:03:30.380Z,70.29
2022-08-03T04:06:16.418Z,70.43
2022-08-03T04:09:03.652Z,69.91
2022-08-03T04:11:50.383Z,69.67
2022-08-03T04:14:29.022Z,69.51
2022-08-03T04:17:04.071Z,69.13
2022-08-03T04:19:46.271Z,68.98
2022-08-03T04:22:20.053Z,68.61
2022-08-03T04:25:19.737Z,68.77
2022-08-03T04:28:07.982Z,68.61
2022-08-03T04:30:47.085Z,68.57
2022-08-03T04:33:17.305Z,67.95
2022-08-03T04:36:02.284Z,67.87
2022-08-03T04:38:52.370Z,67.41
2022-08-03T04:41:24.880Z,67.20
2022-08-03T04:43:58.395Z,67.04
2022-08-03T04:46:38.441Z,66.70
2022-08-03T04:49:07.447Z,66.61
2022-08-03T04:51:38.393Z,66.93
2022-08-03T04:54:06.919Z,67.02
2022-08-03T04:56:34.384Z,66.64
2022-08-03T04:59:01.862Z,66.37
2022-08-03T05:01:29.256Z,65.45
2022-08-03T05:03:56.654Z,65.50
2022-08-03T05:06:25.113Z,65.09
2022-08-03T05:08:52.827Z,65.03
2022-08-03T05:11:21.371Z,64.79
2022-08-03T05:13:48.621Z,64.80
2022-08-03T05:16:15.835Z,64.63
2022-08-03T05:18:44.633Z,64.96
2022-08-03T05:21:16.489Z,64.68
2022-08-03T05:23:44.331Z,64.52
2022-08-03T05:26:11.882Z,64.08
2022-08-03T05:28:39.657Z,64.40
2022-08-03T05:31:19.543Z,64.07
2022-08-03T05:33:48.442Z,64.08
2022-08-03T05:36:15.898Z,64.00
2022-08-03T05:38:43.253Z,63.84
2022-08-03T05:41:21.247Z,64.05
2022-08-03T05:43:54.187Z,64.88
2022-08-03T05:46:23.315Z,64.31
2022-08-03T05:48:50.900Z,64.35
2022-08-03T05:51:18.290Z,63.97
2022-08-03T05:53:45.665Z,63.73
2022-08-03T05:56:15.685Z,63.90
2022-08-03T05:58:46.299Z,63.81
2022-08-03T06:01:15.670Z,64.01
2022-08-03T06:03:43.540Z,63.99
2022-08-03T06:06:11.648Z,64.08
2022-08-03T06:08:40.691Z,64.32
2022-08-03T06:11:09.303Z,64.13
2022-08-03T06:13:37.358Z,63.30
2022-08-03T06:16:05.617Z,63.32
2022-08-03T06:18:33.291Z,63.27
2022-08-03T06:21:15.601Z,63.53
2022-08-03T06:23:54.829Z,63.39
2022-08-03T06:26:28.161Z,63.44
2022-08-03T06:28:55.900Z,63.22
2022-08-03T06:31:33.158Z,62.98
2022-08-03T06:34:32.575Z,62.91
2022-08-03T06:36:52.899Z,62.81
2022-08-03T06:39:23.615Z,62.83
2022-08-03T06:41:53.144Z,62.45
2022-08-03T06:44:20.567Z,62.17
2022-08-03T06:46:47.967Z,62.25
2022-08-03T06:49:15.653Z,61.91
2022-08-03T06:52:03.797Z,61.96
2022-08-03T06:54:33.205Z,62.23
2022-08-03T06:57:01.454Z,62.43
2022-08-03T07:00:06.136Z,62.35
2022-08-03T07:02:20.738Z,62.21
2022-08-03T07:04:49.417Z,61.62
2022-08-03T07:07:42.368Z,61.30
2022-08-03T07:10:13.903Z,61.29
2022-08-03T07:12:55.786Z,61.31
2022-08-03T07:15:55.858Z,61.42
2022-08-03T07:18:12.805Z,61.32
2022-08-03T07:20:40.476Z,61.05
2022-08-03T07:23:08.001Z,60.87
2022-08-03T07:25:35.452Z,60.79
2022-08-03T07:28:04.276Z,60.30
2022-08-03T07:30:31.640Z,60.49
2022-08-03T07:32:59.463Z,60.14
2022-08-03T07:35:26.868Z,60.14
2022-08-03T07:37:55.052Z,59.83
2022-08-03T07:40:35.760Z,59.70
2022-08-03T07:43:03.460Z,59.37
2022-08-03T07:45:31.610Z,58.78
2022-08-03T07:47:59.147Z,58.23
2022-08-03T07:50:26.894Z,57.89
2022-08-03T07:52:55.630Z,57.58
2022-08-03T07:55:25.790Z,57.43
2022-08-03T07:58:22.029Z,56.58
2022-08-03T08:00:52.523Z,54.98
2022-08-03T08:03:21.599Z,54.12
2022-08-03T08:05:50.282Z,53.23
2022-08-03T08:08:17.808Z,53.05
2022-08-03T08:10:57.876Z,52.49
2022-08-03T08:13:26.435Z,51.97
2022-08-03T08:15:54.001Z,51.78
2022-08-03T08:18:21.546Z,51.10
2022-08-03T08:20:49.207Z,50.73
2022-08-03T08:23:42.200Z,50.96
2022-08-03T08:26:11.664Z,51.05
2022-08-03T08:28:39.262Z,50.94
2022-08-03T08:31:07.396Z,50.92
2022-08-03T08:34:03.165Z,50.62
2022-08-03T08:36:23.717Z,50.99
2022-08-03T08:38:51.083Z,51.07
2022-08-03T08:41:19.023Z,51.15
2022-08-03T08:43:46.567Z,51.49
2022-08-03T08:46:23.286Z,50.93
2022-08-03T08:48:53.853Z,50.54
2022-08-03T08:51:54.684Z,50.35
2022-08-03T08:54:18.074Z,49.21
2022-08-03T08:56:46.189Z,48.08
2022-08-03T08:59:14.718Z,48.02
2022-08-03T09:01:42.297Z,47.60
2022-08-03T09:04:10.129Z,47.53
2022-08-03T09:06:37.523Z,47.67
2022-08-03T09:09:07.277Z,47.21
2022-08-03T09:11:55.696Z,47.46
2022-08-03T09:14:36.906Z,47.36
2022-08-03T09:17:10.182Z,47.44
2022-08-03T09:20:07.126Z,47.23
2022-08-03T09:22:35.897Z,47.36
2022-08-03T09:25:24.374Z,47.22
2022-08-03T09:27:53.386Z,47.25
2022-08-03T09:30:33.579Z,47.19
2022-08-03T09:33:12.139Z,46.71
2022-08-03T09:35:54.191Z,47.25
2022-08-03T09:38:25.647Z,47.38
2022-08-03T09:40:59.002Z,47.24
2022-08-03T09:43:45.450Z,47.37
2022-08-03T09:46:13.419Z,47.07
2022-08-03T09:48:40.923Z,47.08
2022-08-03T09:51:14.258Z,47.05
2022-08-03T09:54:00.130Z,46.90
2022-08-03T09:56:50.025Z,46.23
2022-08-03T09:59:32.406Z,45.89
2022-08-03T10:02:01.427Z,46.42
2022-08-03T10:04:28.965Z,46.63
2022-08-03T10:07:09.107Z,46.54
2022-08-03T10:09:37.856Z,46.05
2022-08-03T10:12:13.830Z,46.03
2022-08-03T10:15:07.943Z,45.93
2022-08-03T10:17:55.978Z,45.91
2022-08-03T10:20:23.855Z,46.06
2022-08-03T10:22:52.088Z,46.12
2022-08-03T10:25:19.856Z,45.98
2022-08-03T10:27:51.172Z,45.78
2022-08-03T10:30:18.810Z,45.38
2022-08-03T10:33:51.441Z,45.47
2022-08-03T10:36:07.163Z,45.25
2022-08-03T10:38:47.503Z,45.35
2022-08-03T10:41:19.561Z,45.02
2022-08-03T10:43:50.461Z,44.69
2022-08-03T10:46:20.951Z,44.71
2022-08-03T10:48:51.279Z,44.61
2022-08-03T10:51:20.482Z,44.61
2022-08-03T10:53:55.494Z,44.44
2022-08-03T10:56:51.106Z,44.46
2022-08-03T11:00:05.476Z,44.38
2022-08-03T11:03:14.019Z,44.42
2022-08-03T11:05:48.619Z,44.20
2022-08-03T11:08:37.031Z,43.68
2022-08-03T11:11:16.685Z,43.91
2022-08-03T11:14:07.766Z,43.97
2022-08-03T11:16:49.511Z,44.01
2022-08-03T11:19:22.091Z,44.14
2022-08-03T11:21:52.174Z,43.87
2022-08-03T11:24:40.528Z,44.12
2022-08-03T11:27:22.681Z,44.22
2022-08-03T11:30:09.854Z,44.54
2022-08-03T11:32:37.216Z,44.36
2022-08-03T11:35:21.189Z,44.56
2022-08-03T11:38:03.578Z,44.35
2022-08-03T11:40:43.891Z,43.78
2022-08-03T11:43:31.746Z,44.08
2022-08-03T11:46:28.176Z,44.23
2022-08-03T11:49:09.833Z,44.43
2022-08-03T11:51:39.818Z,44.74
2022-08-03T11:54:07.895Z,45.05
2022-08-03T11:56:50.497Z,45.21
2022-08-03T11:59:21.685Z,45.09
2022-08-03T12:01:50.587Z,44.62
2022-08-03T12:04:18.268Z,44.25
2022-08-03T12:07:03.073Z,43.96
2022-08-03T12:09:30.479Z,42.95
2022-08-03T12:12:00.182Z,43.50
2022-08-03T12:14:49.816Z,43.77
2022-08-03T12:17:17.862Z,43.94
2022-08-03T12:19:45.593Z,43.03
2022-08-03T12:22:13.282Z,42.52
2022-08-03T12:24:42.934Z,42.49
2022-08-03T12:27:10.301Z,42.79
2022-08-03T12:29:37.799Z,43.60
2022-08-03T12:32:05.351Z,43.57
2022-08-03T12:34:47.881Z,43.32
2022-08-03T12:37:22.670Z,43.50
2022-08-03T12:40:05.344Z,43.18
2022-08-03T12:42:39.554Z,42.63
2022-08-03T12:45:20.153Z,43.18
2022-08-03T12:47:54.178Z,43.74
2022-08-03T12:50:40.856Z,44.04
2022-08-03T12:53:09.813Z,43.85
2022-08-03T12:55:56.486Z,43.57
2022-08-03T12:58:35.302Z,42.41
2022-08-03T13:01:09.975Z,42.78
2022-08-03T13:03:49.979Z,43.26
2022-08-03T13:06:25.559Z,44.81
2022-08-03T13:09:07.799Z,46.17
2022-08-03T13:11:57.694Z,47.34
2022-08-03T13:14:23.618Z,47.97
2022-08-03T13:16:51.554Z,48.42
2022-08-03T13:19:18.859Z,48.57
2022-08-03T13:21:53.383Z,48.60
2022-08-03T13:24:32.754Z,48.31
2022-08-03T13:27:00.635Z,48.18
2022-08-03T13:29:48.152Z,47.95
2022-08-03T13:32:15.690Z,47.84
2022-08-03T13:34:43.191Z,47.60
2022-08-03T13:37:11.853Z,47.12
2022-08-03T13:39:58.323Z,46.90
2022-08-03T13:42:32.638Z,46.83
2022-08-03T13:45:01.232Z,46.80
2022-08-03T13:47:28.878Z,46.72
2022-08-03T13:50:00.895Z,46.97
2022-08-03T13:52:33.135Z,46.48
2022-08-03T13:55:02.847Z,46.54
2022-08-03T13:58:03.676Z,46.05
2022-08-03T14:00:27.480Z,45.79
2022-08-03T14:03:12.875Z,45.68
2022-08-03T14:05:43.617Z,45.57
2022-08-03T14:08:12.432Z,45.29
2022-08-03T14:10:43.472Z,45.47
2022-08-03T14:13:17.927Z,44.89
2022-08-03T14:15:50.183Z,44.43
2022-08-03T14:18:28.971Z,44.16
2022-08-03T14:21:06.720Z,43.04
2022-08-03T14:23:37.403Z,41.74
2022-08-03T14:26:08.999Z,41.78
2022-08-03T14:28:36.336Z,42.19
2022-08-03T14:31:04.638Z,42.23
2022-08-03T14:33:36.089Z,42.19
2022-08-03T14:36:04.679Z,42.44
2022-08-03T14:38:32.480Z,42.61
2022-08-03T14:40:59.901Z,42.41
2022-08-03T14:43:33.960Z,42.68
2022-08-03T14:46:01.801Z,42.57
2022-08-03T14:50:29.597Z,42.53
2022-08-03T14:51:17.321Z,42.91
2022-08-03T14:53:46.154Z,42.58
2022-08-03T14:56:13.631Z,42.56
2022-08-03T14:58:41.285Z,42.10
2022-08-03T15:02:02.195Z,42.05
2022-08-03T15:03:56.133Z,41.79
2022-08-03T15:06:24.117Z,42.20
2022-08-03T15:09:21.422Z,42.28
2022-08-03T15:11:39.275Z,42.36
2022-08-03T15:14:09.376Z,42.50
2022-08-03T15:16:38.370Z,42.96
2022-08-03T15:20:00.341Z,42.90
2022-08-03T15:21:54.050Z,42.98
2022-08-03T15:24:21.516Z,43.04
2022-08-03T15:26:49.114Z,42.82
2022-08-03T15:30:09.459Z,42.32
2022-08-03T15:32:09.010Z,42.51
2022-08-03T15:34:37.483Z,42.44
2022-08-03T15:37:16.481Z,42.15
2022-08-03T15:40:00.151Z,42.11
2022-08-03T15:42:30.095Z,42.97
2022-08-03T15:44:57.994Z,43.23
2022-08-03T15:47:26.234Z,44.27
2022-08-03T15:49:53.886Z,45.48
2022-08-03T15:52:21.704Z,46.14
2022-08-03T15:54:49.477Z,46.40
2022-08-03T15:57:17.109Z,46.66
2022-08-03T15:59:45.801Z,46.98
2022-08-03T16:02:15.105Z,46.81
2022-08-03T16:04:43.078Z,47.04
2022-08-03T16:07:12.854Z,47.20
2022-08-03T16:09:43.249Z,46.82
2022-08-03T16:12:16.333Z,46.17
2022-08-03T16:14:52.460Z,46.29
2022-08-03T16:17:23.231Z,45.31
2022-08-03T16:19:54.114Z,44.63
2022-08-03T16:22:24.747Z,43.93
2022-08-03T16:24:54.270Z,43.21
2022-08-03T16:27:37.144Z,42.59
2022-08-03T16:30:16.155Z,43.37
2022-08-03T16:32:45.502Z,44.01
2022-08-03T16:35:19.468Z,44.28
2022-08-03T16:37:50.623Z,44.55
2022-08-03T16:40:25.251Z,44.93
2022-08-03T16:42:52.855Z,45.29
2022-08-03T16:45:20.284Z,45.78
2022-08-03T16:47:47.985Z,46.03
2022-08-03T16:50:29.792Z,46.04
2022-08-03T16:53:00.866Z,46.32
2022-08-03T16:55:48.855Z,46.66
2022-08-03T16:58:24.292Z,46.95
2022-08-03T17:01:20.819Z,46.95
2022-08-03T17:04:04.574Z,47.30
2022-08-03T17:06:45.078Z,47.57
2022-08-03T17:09:20.553Z,47.45
2022-08-03T17:11:52.362Z,47.37
2022-08-03T17:14:28.350Z,47.71
2022-08-03T17:17:02.668Z,47.75
2022-08-03T17:19:39.033Z,47.90
2022-08-03T17:22:21.263Z,48.03
2022-08-03T17:24:53.265Z,48.15
2022-08-03T17:28:48.571Z,48.23
2022-08-03T17:30:20.181Z,48.44
2022-08-03T17:32:56.687Z,48.55
2022-08-03T17:35:34.344Z,48.84
2022-08-03T17:38:09.010Z,48.91
2022-08-03T17:40:48.208Z,49.11
2022-08-03T17:44:14.011Z,49.50
2022-08-03T17:46:20.946Z,49.59
2022-08-03T17:48:51.611Z,49.85
2022-08-03T17:52:17.377Z,50.08
2022-08-03T17:58:02.274Z,50.80
2022-08-03T18:00:52.644Z,50.74
2022-08-03T18:03:57.890Z,50.82
2022-08-03T18:06:37.723Z,51.40
2022-08-03T18:12:29.422Z,51.57
2022-08-03T18:15:08.325Z,51.80
2022-08-03T18:18:01.749Z,51.67
2022-08-03T18:20:41.643Z,51.79
2022-08-03T18:23:24.692Z,52.06
2022-08-03T18:25:58.217Z,52.24
2022-08-03T18:28:29.026Z,52.64
2022-08-03T18:31:00.015Z,52.85
2022-08-03T18:34:18.820Z,52.76
2022-08-03T18:36:22.137Z,52.92
2022-08-03T18:39:04.835Z,53.12
2022-08-03T18:41:34.983Z,53.29
2022-08-03T18:44:09.342Z,53.51
2022-08-03T18:47:23.705Z,53.37
2022-08-03T18:49:53.568Z,53.46
2022-08-03T18:52:45.859Z,54.06
2022-08-03T18:55:37.206Z,54.04
2022-08-03T18:58:15.699Z,54.89
2022-08-03T19:01:03.433Z,54.77
2022-08-03T19:03:43.013Z,54.72
2022-08-03T19:06:25.386Z,54.98
2022-08-03T19:09:12.844Z,54.99
2022-08-03T19:12:12.396Z,55.39
2022-08-03T19:14:59.956Z,55.17
2022-08-03T19:17:35.829Z,55.36
2022-08-03T19:20:10.120Z,55.65
2022-08-03T19:22:39.791Z,56.00
2022-08-03T19:25:18.457Z,55.32
2022-08-03T19:27:50.712Z,56.03
2022-08-03T19:30:53.375Z,55.94
2022-08-03T19:33:26.379Z,55.94
2022-08-03T19:36:00.469Z,55.90
2022-08-03T19:38:29.796Z,55.91
2022-08-03T19:41:03.741Z,56.33
2022-08-03T19:43:53.633Z,56.25
2022-08-03T19:46:30.533Z,56.36
2022-08-03T19:49:15.075Z,56.26
2022-08-03T19:52:00.549Z,56.57
2022-08-03T19:54:45.778Z,56.53
2022-08-03T19:57:26.918Z,56.76
2022-08-03T19:59:56.982Z,57.04
2022-08-03T20:02:29.830Z,56.83
2022-08-03T20:05:00.048Z,56.78
2022-08-03T20:07:34.862Z,56.85
2022-08-03T20:10:07.680Z,56.91
2022-08-03T20:12:39.588Z,57.35
2022-08-03T20:15:08.781Z,57.40
2022-08-03T20:17:56.040Z,57.79
2022-08-03T20:20:37.259Z,57.68
2022-08-03T20:23:15.500Z,57.94
2022-08-03T20:25:58.307Z,57.95
2022-08-03T20:28:52.928Z,58.09
2022-08-03T20:31:25.170Z,58.37
2022-08-03T20:34:04.980Z,58.49
2022-08-03T20:36:32.809Z,58.01
2022-08-03T20:39:00.363Z,58.56
2022-08-03T20:41:28.278Z,59.03
2022-08-03T20:44:00.463Z,59.03
2022-08-03T20:46:32.162Z,59.06
2022-08-03T20:49:04.886Z,59.27
2022-08-03T20:51:49.585Z,58.97
2022-08-03T20:54:30.533Z,59.50
2022-08-03T20:57:03.894Z,59.33
2022-08-03T20:59:50.241Z,59.46
2022-08-03T21:02:30.157Z,59.53
2022-08-03T21:05:03.596Z,59.85
2022-08-03T21:08:06.189Z,59.99
2022-08-03T21:10:42.096Z,59.98
2022-08-03T21:12:55.767Z,50.47
2022-08-03T21:12:57.104Z,51.18
2022-08-03T21:13:29.717Z,60.43
2022-08-03T21:16:06.493Z,60.50
2022-08-03T21:18:50.290Z,60.37
2022-08-03T21:21:20.971Z,60.10
2022-08-03T21:23:54.765Z,60.37
2022-08-03T21:26:26.137Z,60.40
2022-08-03T21:28:56.104Z,60.37
2022-08-03T21:31:26.565Z,60.86
2022-08-03T21:34:02.874Z,60.68
2022-08-03T21:36:34.472Z,61.27
2022-08-03T21:39:05.763Z,60.65
2022-08-03T21:41:33.713Z,60.61
2022-08-03T21:44:01.941Z,61.73
2022-08-03T21:46:39.900Z,61.41
2022-08-03T21:50:06.135Z,61.62
2022-08-03T21:52:02.527Z,61.91
2022-08-03T21:54:40.679Z,62.18
2022-08-03T21:57:31.272Z,62.07
2022-08-03T22:00:14.929Z,62.00
2022-08-03T22:02:54.543Z,62.35
2022-08-03T22:05:28.888Z,62.02
2022-08-03T22:08:13.118Z,62.33
2022-08-03T22:10:44.216Z,62.13
2022-08-03T22:13:14.500Z,62.50
2022-08-03T22:15:42.013Z,62.62
2022-08-03T22:18:09.483Z,63.47
2022-08-03T22:20:37.164Z,63.11
2022-08-03T22:23:06.880Z,62.72
2022-08-03T22:25:38.990Z,63.00
2022-08-03T22:28:11.701Z,63.29
2022-08-03T22:30:41.256Z,63.31
2022-08-03T22:33:11.976Z,63.77
2022-08-03T22:35:47.894Z,63.55
2022-08-03T22:38:18.107Z,63.26
2022-08-03T22:40:49.320Z,63.36
2022-08-03T22:43:16.679Z,63.31
2022-08-03T22:46:09.831Z,63.60
2022-08-03T22:48:36.635Z,63.71
2022-08-03T22:51:10.100Z,64.44
2022-08-03T22:53:39.059Z,64.80
2022-08-03T22:56:06.893Z,64.57
2022-08-03T22:58:34.193Z,65.46
2022-08-03T23:01:09.278Z,66.35
2022-08-03T23:03:58.869Z,66.47
2022-08-03T23:06:42.070Z,66.80
2022-08-03T23:09:12.020Z,66.62
2022-08-03T23:11:45.999Z,67.72
2022-08-03T23:14:16.705Z,67.75
2022-08-03T23:16:45.949Z,67.98
2022-08-03T23:19:16.530Z,68.01
2022-08-03T23:21:52.852Z,68.19
2022-08-03T23:24:29.690Z,68.01
2022-08-03T23:26:58.621Z,68.41
2022-08-03T23:29:28.902Z,69.66
2022-08-03T23:31:57.219Z,70.16
2022-08-03T23:34:44.291Z,70.01
2022-08-03T23:37:15.030Z,70.33
2022-08-03T23:39:48.551Z,70.12
2022-08-03T23:42:20.110Z,70.55
2022-08-03T23:44:54.018Z,69.98
2022-08-03T23:47:21.884Z,70.96
2022-08-03T23:49:49.586Z,71.21
2022-08-03T23:52:38.957Z,71.78
2022-08-03T23:55:37.367Z,71.96
2022-08-03T23:58:49.239Z,72.18
